sensor_id;sensor_type;location;lat;lon;timestamp;P1;durP1;ratioP1;P2;durP2;ratioP2
40907;SDS011;51055;59.436;24.778;2023-05-16T00:00:29;6.30;;;2.05;;
40907;SDS011;51055;59.436;24.778;2023-05-16T00:03:01;5.85;;;1.92;;
40907;SDS011;51055;59.436;24.778;2023-05-16T00:05:33;7.97;;;2.13;;
40907;SDS011;51055;59.436;24.778;2023-05-16T00:08:00;4.80;;;1.92;;
40907;SDS011;51055;59.436;24.778;2023-05-16T00:10:28;4.90;;;1.88;;
40907;SDS011;51055;59.436;24.778;2023-05-16T00:12:55;4.50;;;1.98;;
40907;SDS011;51055;59.436;24.778;2023-05-16T00:15:23;5.07;;;2.72;;
40907;SDS011;51055;59.436;24.778;2023-05-16T00:17:51;4.40;;;2.03;;
40907;SDS011;51055;59.436;24.778;2023-05-16T00:20:18;4.60;;;2.25;;
40907;SDS011;51055;59.436;24.778;2023-05-16T00:22:50;6.55;;;2.20;;
40907;SDS011;51055;59.436;24.778;2023-05-16T00:25:17;4.30;;;2.22;;
40907;SDS011;51055;59.436;24.778;2023-05-16T00:27:45;5.93;;;1.93;;
40907;SDS011;51055;59.436;24.778;2023-05-16T00:30:13;6.53;;;2.10;;
40907;SDS011;51055;59.436;24.778;2023-05-16T00:32:40;4.20;;;1.90;;
40907;SDS011;51055;59.436;24.778;2023-05-16T00:35:08;5.20;;;2.07;;
40907;SDS011;51055;59.436;24.778;2023-05-16T00:37:38;5.13;;;2.10;;
40907;SDS011;51055;59.436;24.778;2023-05-16T00:40:07;5.40;;;2.05;;
40907;SDS011;51055;59.436;24.778;2023-05-16T00:42:34;6.00;;;2.33;;
40907;SDS011;51055;59.436;24.778;2023-05-16T00:45:02;6.13;;;2.10;;
40907;SDS011;51055;59.436;24.778;2023-05-16T00:47:30;6.60;;;2.33;;
40907;SDS011;51055;59.436;24.778;2023-05-16T00:49:58;7.70;;;2.33;;
40907;SDS011;51055;59.436;24.778;2023-05-16T00:52:26;5.60;;;2.17;;
40907;SDS011;51055;59.436;24.778;2023-05-16T00:54:54;5.13;;;2.10;;
40907;SDS011;51055;59.436;24.778;2023-05-16T00:57:23;6.82;;;2.00;;
40907;SDS011;51055;59.436;24.778;2023-05-16T00:59:51;6.43;;;2.37;;
40907;SDS011;51055;59.436;24.778;2023-05-16T01:02:18;4.55;;;2.28;;
40907;SDS011;51055;59.436;24.778;2023-05-16T01:04:46;5.55;;;2.58;;
40907;SDS011;51055;59.436;24.778;2023-05-16T01:07:15;7.00;;;2.10;;
40907;SDS011;51055;59.436;24.778;2023-05-16T01:09:43;5.27;;;2.10;;
40907;SDS011;51055;59.436;24.778;2023-05-16T01:12:15;3.80;;;2.05;;
40907;SDS011;51055;59.436;24.778;2023-05-16T01:28:06;4.60;;;2.28;;
40907;SDS011;51055;59.436;24.778;2023-05-16T01:30:34;7.57;;;2.58;;
40907;SDS011;51055;59.436;24.778;2023-05-16T01:33:06;8.52;;;2.50;;
40907;SDS011;51055;59.436;24.778;2023-05-16T01:39:10;6.18;;;2.30;;
40907;SDS011;51055;59.436;24.778;2023-05-16T01:47:16;4.32;;;2.20;;
40907;SDS011;51055;59.436;24.778;2023-05-16T01:52:39;4.57;;;2.17;;
40907;SDS011;51055;59.436;24.778;2023-05-16T01:55:15;4.72;;;2.03;;
40907;SDS011;51055;59.436;24.778;2023-05-16T01:57:47;6.05;;;2.30;;
40907;SDS011;51055;59.436;24.778;2023-05-16T02:00:18;6.13;;;2.10;;
40907;SDS011;51055;59.436;24.778;2023-05-16T02:02:47;7.28;;;2.40;;
40907;SDS011;51055;59.436;24.778;2023-05-16T02:05:15;7.32;;;2.38;;
40907;SDS011;51055;59.436;24.778;2023-05-16T02:07:42;5.45;;;2.33;;
40907;SDS011;51055;59.436;24.778;2023-05-16T02:10:11;6.05;;;2.33;;
40907;SDS011;51055;59.436;24.778;2023-05-16T02:12:39;5.97;;;2.20;;
40907;SDS011;51055;59.436;24.778;2023-05-16T02:15:07;7.28;;;2.28;;
40907;SDS011;51055;59.436;24.778;2023-05-16T02:17:36;10.15;;;2.40;;
40907;SDS011;51055;59.436;24.778;2023-05-16T02:20:04;4.80;;;2.20;;
40907;SDS011;51055;59.436;24.778;2023-05-16T02:22:33;5.88;;;2.15;;
40907;SDS011;51055;59.436;24.778;2023-05-16T02:25:01;5.25;;;2.38;;
40907;SDS011;51055;59.436;24.778;2023-05-16T02:27:29;5.13;;;2.22;;
40907;SDS011;51055;59.436;24.778;2023-05-16T02:29:57;8.40;;;3.03;;
40907;SDS011;51055;59.436;24.778;2023-05-16T02:32:25;6.95;;;2.38;;
40907;SDS011;51055;59.436;24.778;2023-05-16T02:34:53;5.13;;;1.92;;
40907;SDS011;51055;59.436;24.778;2023-05-16T02:37:20;4.07;;;2.03;;
40907;SDS011;51055;59.436;24.778;2023-05-16T02:39:48;6.03;;;2.20;;
40907;SDS011;51055;59.436;24.778;2023-05-16T02:42:16;7.82;;;2.30;;
40907;SDS011;51055;59.436;24.778;2023-05-16T02:44:44;7.32;;;2.13;;
40907;SDS011;51055;59.436;24.778;2023-05-16T02:47:11;7.38;;;2.58;;
40907;SDS011;51055;59.436;24.778;2023-05-16T02:49:39;4.72;;;2.10;;
40907;SDS011;51055;59.436;24.778;2023-05-16T02:52:06;5.50;;;2.22;;
40907;SDS011;51055;59.436;24.778;2023-05-16T02:54:34;6.07;;;2.30;;
40907;SDS011;51055;59.436;24.778;2023-05-16T02:57:01;5.20;;;2.13;;
40907;SDS011;51055;59.436;24.778;2023-05-16T02:59:29;5.68;;;2.30;;
40907;SDS011;51055;59.436;24.778;2023-05-16T03:01:56;4.07;;;1.88;;
40907;SDS011;51055;59.436;24.778;2023-05-16T03:04:24;6.13;;;2.03;;
40907;SDS011;51055;59.436;24.778;2023-05-16T03:06:52;5.45;;;2.13;;
40907;SDS011;51055;59.436;24.778;2023-05-16T03:09:20;6.20;;;2.30;;
40907;SDS011;51055;59.436;24.778;2023-05-16T03:11:48;6.43;;;2.40;;
40907;SDS011;51055;59.436;24.778;2023-05-16T03:14:15;5.53;;;2.30;;
40907;SDS011;51055;59.436;24.778;2023-05-16T03:16:43;6.55;;;2.80;;
40907;SDS011;51055;59.436;24.778;2023-05-16T03:19:11;7.68;;;2.70;;
40907;SDS011;51055;59.436;24.778;2023-05-16T03:24:07;5.85;;;2.42;;
40907;SDS011;51055;59.436;24.778;2023-05-16T03:26:35;6.03;;;2.28;;
40907;SDS011;51055;59.436;24.778;2023-05-16T03:29:03;4.65;;;2.50;;
40907;SDS011;51055;59.436;24.778;2023-05-16T03:31:31;6.13;;;2.38;;
40907;SDS011;51055;59.436;24.778;2023-05-16T03:33:59;7.15;;;2.47;;
40907;SDS011;51055;59.436;24.778;2023-05-16T03:36:27;5.30;;;2.35;;
40907;SDS011;51055;59.436;24.778;2023-05-16T03:38:55;4.80;;;2.27;;
40907;SDS011;51055;59.436;24.778;2023-05-16T03:41:22;9.25;;;2.50;;
40907;SDS011;51055;59.436;24.778;2023-05-16T03:43:50;8.25;;;2.65;;
40907;SDS011;51055;59.436;24.778;2023-05-16T03:46:17;5.60;;;2.38;;
40907;SDS011;51055;59.436;24.778;2023-05-16T03:48:45;7.50;;;2.85;;
40907;SDS011;51055;59.436;24.778;2023-05-16T03:51:13;13.25;;;2.85;;
40907;SDS011;51055;59.436;24.778;2023-05-16T03:53:40;8.15;;;2.60;;
40907;SDS011;51055;59.436;24.778;2023-05-16T03:56:08;6.47;;;2.60;;
40907;SDS011;51055;59.436;24.778;2023-05-16T03:58:35;6.60;;;2.58;;
40907;SDS011;51055;59.436;24.778;2023-05-16T04:01:03;5.63;;;2.65;;
40907;SDS011;51055;59.436;24.778;2023-05-16T04:03:30;8.25;;;2.97;;
40907;SDS011;51055;59.436;24.778;2023-05-16T04:05:59;6.68;;;2.75;;
40907;SDS011;51055;59.436;24.778;2023-05-16T04:08:27;5.20;;;2.72;;
40907;SDS011;51055;59.436;24.778;2023-05-16T04:10:55;7.13;;;2.78;;
40907;SDS011;51055;59.436;24.778;2023-05-16T04:13:22;6.95;;;2.95;;
40907;SDS011;51055;59.436;24.778;2023-05-16T04:15:50;5.68;;;2.42;;
40907;SDS011;51055;59.436;24.778;2023-05-16T04:18:18;5.97;;;2.63;;
40907;SDS011;51055;59.436;24.778;2023-05-16T04:20:46;10.30;;;3.25;;
40907;SDS011;51055;59.436;24.778;2023-05-16T04:23:14;5.93;;;2.80;;
40907;SDS011;51055;59.436;24.778;2023-05-16T04:25:41;5.78;;;2.80;;
40907;SDS011;51055;59.436;24.778;2023-05-16T04:28:09;8.00;;;3.00;;
40907;SDS011;51055;59.436;24.778;2023-05-16T04:30:37;6.90;;;3.17;;
40907;SDS011;51055;59.436;24.778;2023-05-16T04:33:05;6.28;;;3.03;;
40907;SDS011;51055;59.436;24.778;2023-05-16T04:35:33;7.78;;;3.05;;
40907;SDS011;51055;59.436;24.778;2023-05-16T04:38:01;6.75;;;2.70;;
40907;SDS011;51055;59.436;24.778;2023-05-16T04:40:28;9.30;;;3.08;;
40907;SDS011;51055;59.436;24.778;2023-05-16T04:42:56;7.57;;;3.15;;
40907;SDS011;51055;59.436;24.778;2023-05-16T04:45:23;9.65;;;2.80;;
40907;SDS011;51055;59.436;24.778;2023-05-16T04:47:52;9.27;;;2.70;;
40907;SDS011;51055;59.436;24.778;2023-05-16T04:50:20;9.50;;;3.10;;
40907;SDS011;51055;59.436;24.778;2023-05-16T04:52:48;7.20;;;3.40;;
40907;SDS011;51055;59.436;24.778;2023-05-16T04:55:15;11.48;;;3.30;;
40907;SDS011;51055;59.436;24.778;2023-05-16T04:57:43;8.82;;;3.33;;
40907;SDS011;51055;59.436;24.778;2023-05-16T05:00:11;9.13;;;3.25;;
40907;SDS011;51055;59.436;24.778;2023-05-16T05:02:39;7.30;;;3.40;;
40907;SDS011;51055;59.436;24.778;2023-05-16T05:05:07;9.95;;;3.20;;
40907;SDS011;51055;59.436;24.778;2023-05-16T05:07:35;7.05;;;3.40;;
40907;SDS011;51055;59.436;24.778;2023-05-16T05:10:02;7.15;;;3.10;;
40907;SDS011;51055;59.436;24.778;2023-05-16T05:12:30;5.68;;;3.20;;
40907;SDS011;51055;59.436;24.778;2023-05-16T05:14:58;11.18;;;3.53;;
40907;SDS011;51055;59.436;24.778;2023-05-16T05:17:25;6.72;;;3.40;;
40907;SDS011;51055;59.436;24.778;2023-05-16T05:19:53;7.60;;;3.47;;
40907;SDS011;51055;59.436;24.778;2023-05-16T05:22:21;10.32;;;3.20;;
40907;SDS011;51055;59.436;24.778;2023-05-16T05:24:48;6.53;;;3.30;;
40907;SDS011;51055;59.436;24.778;2023-05-16T05:27:16;6.75;;;3.20;;
40907;SDS011;51055;59.436;24.778;2023-05-16T05:29:44;6.72;;;3.15;;
40907;SDS011;51055;59.436;24.778;2023-05-16T05:32:12;6.88;;;3.22;;
40907;SDS011;51055;59.436;24.778;2023-05-16T05:34:40;9.52;;;4.03;;
40907;SDS011;51055;59.436;24.778;2023-05-16T05:37:07;11.05;;;3.58;;
40907;SDS011;51055;59.436;24.778;2023-05-16T05:39:35;7.00;;;3.13;;
40907;SDS011;51055;59.436;24.778;2023-05-16T05:42:03;6.60;;;3.55;;
40907;SDS011;51055;59.436;24.778;2023-05-16T05:44:30;8.30;;;4.03;;
40907;SDS011;51055;59.436;24.778;2023-05-16T05:46:58;7.70;;;3.70;;
40907;SDS011;51055;59.436;24.778;2023-05-16T05:49:27;8.00;;;4.00;;
40907;SDS011;51055;59.436;24.778;2023-05-16T05:51:54;14.23;;;4.57;;
40907;SDS011;51055;59.436;24.778;2023-05-16T05:54:22;8.13;;;3.88;;
40907;SDS011;51055;59.436;24.778;2023-05-16T05:56:50;7.97;;;3.72;;
40907;SDS011;51055;59.436;24.778;2023-05-16T05:59:18;8.73;;;3.42;;
40907;SDS011;51055;59.436;24.778;2023-05-16T06:01:45;9.85;;;3.90;;
40907;SDS011;51055;59.436;24.778;2023-05-16T06:04:13;9.18;;;3.90;;
40907;SDS011;51055;59.436;24.778;2023-05-16T06:06:41;6.68;;;3.55;;
40907;SDS011;51055;59.436;24.778;2023-05-16T06:09:09;8.25;;;4.00;;
40907;SDS011;51055;59.436;24.778;2023-05-16T06:11:36;7.70;;;3.85;;
40907;SDS011;51055;59.436;24.778;2023-05-16T06:14:04;11.57;;;3.83;;
40907;SDS011;51055;59.436;24.778;2023-05-16T06:16:32;10.60;;;4.10;;
40907;SDS011;51055;59.436;24.778;2023-05-16T06:19:00;10.35;;;4.05;;
40907;SDS011;51055;59.436;24.778;2023-05-16T06:21:28;7.40;;;3.90;;
40907;SDS011;51055;59.436;24.778;2023-05-16T06:23:56;8.75;;;4.05;;
40907;SDS011;51055;59.436;24.778;2023-05-16T06:26:24;6.90;;;3.80;;
40907;SDS011;51055;59.436;24.778;2023-05-16T06:28:51;7.65;;;3.90;;
40907;SDS011;51055;59.436;24.778;2023-05-16T06:31:19;8.85;;;4.10;;
40907;SDS011;51055;59.436;24.778;2023-05-16T06:33:47;7.47;;;3.90;;
40907;SDS011;51055;59.436;24.778;2023-05-16T06:36:14;10.73;;;4.10;;
40907;SDS011;51055;59.436;24.778;2023-05-16T06:38:42;7.75;;;3.72;;
40907;SDS011;51055;59.436;24.778;2023-05-16T06:41:10;6.78;;;3.60;;
40907;SDS011;51055;59.436;24.778;2023-05-16T06:43:38;9.52;;;4.53;;
40907;SDS011;51055;59.436;24.778;2023-05-16T06:46:06;6.25;;;3.70;;
40907;SDS011;51055;59.436;24.778;2023-05-16T06:48:34;6.90;;;3.80;;
40907;SDS011;51055;59.436;24.778;2023-05-16T06:51:02;6.88;;;4.07;;
40907;SDS011;51055;59.436;24.778;2023-05-16T06:53:30;7.22;;;4.13;;
40907;SDS011;51055;59.436;24.778;2023-05-16T06:55:58;7.90;;;4.03;;
40907;SDS011;51055;59.436;24.778;2023-05-16T06:58:25;8.43;;;4.50;;
40907;SDS011;51055;59.436;24.778;2023-05-16T07:00:53;7.40;;;4.22;;
40907;SDS011;51055;59.436;24.778;2023-05-16T07:03:21;10.13;;;4.25;;
40907;SDS011;51055;59.436;24.778;2023-05-16T07:05:49;7.07;;;4.40;;
40907;SDS011;51055;59.436;24.778;2023-05-16T07:08:19;9.70;;;4.72;;
40907;SDS011;51055;59.436;24.778;2023-05-16T07:10:47;8.13;;;4.50;;
40907;SDS011;51055;59.436;24.778;2023-05-16T07:13:14;14.38;;;9.00;;
40907;SDS011;51055;59.436;24.778;2023-05-16T07:15:42;7.65;;;4.63;;
40907;SDS011;51055;59.436;24.778;2023-05-16T07:18:09;10.40;;;5.05;;
40907;SDS011;51055;59.436;24.778;2023-05-16T07:20:37;9.40;;;4.28;;
40907;SDS011;51055;59.436;24.778;2023-05-16T07:23:05;7.85;;;4.40;;
40907;SDS011;51055;59.436;24.778;2023-05-16T07:25:32;9.25;;;5.10;;
40907;SDS011;51055;59.436;24.778;2023-05-16T07:28:00;9.18;;;4.95;;
40907;SDS011;51055;59.436;24.778;2023-05-16T07:30:28;7.95;;;5.13;;
40907;SDS011;51055;59.436;24.778;2023-05-16T07:32:56;8.93;;;4.57;;
40907;SDS011;51055;59.436;24.778;2023-05-16T07:35:24;9.60;;;5.28;;
40907;SDS011;51055;59.436;24.778;2023-05-16T07:37:53;9.10;;;5.20;;
40907;SDS011;51055;59.436;24.778;2023-05-16T07:40:20;13.23;;;5.20;;
40907;SDS011;51055;59.436;24.778;2023-05-16T07:42:52;8.32;;;5.30;;
40907;SDS011;51055;59.436;24.778;2023-05-16T07:45:19;9.52;;;5.40;;
40907;SDS011;51055;59.436;24.778;2023-05-16T07:47:47;10.48;;;5.50;;
40907;SDS011;51055;59.436;24.778;2023-05-16T07:50:15;10.50;;;5.60;;
40907;SDS011;51055;59.436;24.778;2023-05-16T07:52:43;11.50;;;5.70;;
40907;SDS011;51055;59.436;24.778;2023-05-16T07:55:10;8.10;;;4.97;;
40907;SDS011;51055;59.436;24.778;2023-05-16T07:57:38;14.20;;;6.03;;
40907;SDS011;51055;59.436;24.778;2023-05-16T08:00:06;8.43;;;5.00;;
40907;SDS011;51055;59.436;24.778;2023-05-16T08:02:34;9.77;;;5.40;;
40907;SDS011;51055;59.436;24.778;2023-05-16T08:05:02;12.33;;;5.83;;
40907;SDS011;51055;59.436;24.778;2023-05-16T08:07:30;16.83;;;5.70;;
40907;SDS011;51055;59.436;24.778;2023-05-16T08:09:58;10.13;;;5.13;;
40907;SDS011;51055;59.436;24.778;2023-05-16T08:12:25;8.40;;;5.32;;
40907;SDS011;51055;59.436;24.778;2023-05-16T08:14:53;15.02;;;5.63;;
40907;SDS011;51055;59.436;24.778;2023-05-16T08:17:21;10.90;;;5.32;;
40907;SDS011;51055;59.436;24.778;2023-05-16T08:19:49;10.70;;;5.63;;
40907;SDS011;51055;59.436;24.778;2023-05-16T08:22:16;10.00;;;5.60;;
40907;SDS011;51055;59.436;24.778;2023-05-16T08:24:44;8.82;;;5.95;;
40907;SDS011;51055;59.436;24.778;2023-05-16T08:27:12;7.75;;;5.38;;
40907;SDS011;51055;59.436;24.778;2023-05-16T08:29:39;8.20;;;5.60;;
40907;SDS011;51055;59.436;24.778;2023-05-16T08:32:07;10.10;;;5.57;;
40907;SDS011;51055;59.436;24.778;2023-05-16T08:34:37;9.07;;;5.63;;
40907;SDS011;51055;59.436;24.778;2023-05-16T08:37:05;10.98;;;5.18;;
40907;SDS011;51055;59.436;24.778;2023-05-16T08:39:32;9.50;;;5.43;;
40907;SDS011;51055;59.436;24.778;2023-05-16T08:42:00;9.30;;;5.60;;
40907;SDS011;51055;59.436;24.778;2023-05-16T08:44:28;8.73;;;5.10;;
40907;SDS011;51055;59.436;24.778;2023-05-16T08:46:55;7.00;;;5.40;;
40907;SDS011;51055;59.436;24.778;2023-05-16T08:49:24;8.65;;;5.20;;
40907;SDS011;51055;59.436;24.778;2023-05-16T08:51:55;7.75;;;5.38;;
40907;SDS011;51055;59.436;24.778;2023-05-16T08:54:24;9.57;;;4.75;;
40907;SDS011;51055;59.436;24.778;2023-05-16T08:56:54;7.97;;;4.97;;
40907;SDS011;51055;59.436;24.778;2023-05-16T08:59:24;9.43;;;4.90;;
40907;SDS011;51055;59.436;24.778;2023-05-16T09:01:52;8.98;;;4.93;;
40907;SDS011;51055;59.436;24.778;2023-05-16T09:04:20;8.73;;;4.70;;
40907;SDS011;51055;59.436;24.778;2023-05-16T09:06:48;7.25;;;5.03;;
40907;SDS011;51055;59.436;24.778;2023-05-16T09:09:16;7.68;;;4.45;;
40907;SDS011;51055;59.436;24.778;2023-05-16T09:11:44;8.85;;;4.57;;
40907;SDS011;51055;59.436;24.778;2023-05-16T09:14:12;9.15;;;4.82;;
40907;SDS011;51055;59.436;24.778;2023-05-16T09:16:40;8.43;;;4.28;;
40907;SDS011;51055;59.436;24.778;2023-05-16T09:19:11;7.78;;;4.00;;
40907;SDS011;51055;59.436;24.778;2023-05-16T09:21:39;7.10;;;4.45;;
40907;SDS011;51055;59.436;24.778;2023-05-16T09:24:08;8.65;;;4.53;;
40907;SDS011;51055;59.436;24.778;2023-05-16T09:26:37;8.25;;;4.40;;
40907;SDS011;51055;59.436;24.778;2023-05-16T09:29:11;6.72;;;4.53;;
40907;SDS011;51055;59.436;24.778;2023-05-16T09:31:40;7.97;;;4.20;;
40907;SDS011;51055;59.436;24.778;2023-05-16T09:34:09;9.57;;;4.40;;
40907;SDS011;51055;59.436;24.778;2023-05-16T09:36:39;7.97;;;4.35;;
40907;SDS011;51055;59.436;24.778;2023-05-16T09:39:09;8.05;;;4.28;;
40907;SDS011;51055;59.436;24.778;2023-05-16T09:41:41;7.53;;;4.60;;
40907;SDS011;51055;59.436;24.778;2023-05-16T09:44:09;6.80;;;4.18;;
40907;SDS011;51055;59.436;24.778;2023-05-16T09:46:37;6.82;;;4.05;;
40907;SDS011;51055;59.436;24.778;2023-05-16T09:49:05;7.97;;;4.20;;
40907;SDS011;51055;59.436;24.778;2023-05-16T09:51:32;8.88;;;3.78;;
40907;SDS011;51055;59.436;24.778;2023-05-16T09:54:00;7.38;;;4.43;;
40907;SDS011;51055;59.436;24.778;2023-05-16T09:56:28;7.35;;;4.22;;
40907;SDS011;51055;59.436;24.778;2023-05-16T09:58:56;8.45;;;4.72;;
40907;SDS011;51055;59.436;24.778;2023-05-16T10:01:24;7.78;;;5.10;;
40907;SDS011;51055;59.436;24.778;2023-05-16T10:03:52;9.55;;;5.32;;
40907;SDS011;51055;59.436;24.778;2023-05-16T10:06:19;8.65;;;4.65;;
40907;SDS011;51055;59.436;24.778;2023-05-16T10:11:16;10.00;;;4.63;;
40907;SDS011;51055;59.436;24.778;2023-05-16T10:13:45;7.20;;;5.03;;
40907;SDS011;51055;59.436;24.778;2023-05-16T10:16:20;8.18;;;5.40;;
40907;SDS011;51055;59.436;24.778;2023-05-16T10:18:50;8.80;;;4.82;;
40907;SDS011;51055;59.436;24.778;2023-05-16T10:21:18;8.52;;;4.85;;
40907;SDS011;51055;59.436;24.778;2023-05-16T10:23:50;6.72;;;4.57;;
40907;SDS011;51055;59.436;24.778;2023-05-16T10:26:18;8.05;;;4.28;;
40907;SDS011;51055;59.436;24.778;2023-05-16T10:28:49;8.80;;;4.00;;
40907;SDS011;51055;59.436;24.778;2023-05-16T10:31:17;6.90;;;4.20;;
40907;SDS011;51055;59.436;24.778;2023-05-16T10:33:46;8.90;;;4.40;;
40907;SDS011;51055;59.436;24.778;2023-05-16T10:36:14;6.35;;;3.95;;
40907;SDS011;51055;59.436;24.778;2023-05-16T10:38:43;7.03;;;4.22;;
40907;SDS011;51055;59.436;24.778;2023-05-16T10:41:11;6.85;;;4.30;;
40907;SDS011;51055;59.436;24.778;2023-05-16T10:43:43;8.17;;;4.20;;
40907;SDS011;51055;59.436;24.778;2023-05-16T10:46:11;8.68;;;3.97;;
40907;SDS011;51055;59.436;24.778;2023-05-16T10:48:40;6.35;;;3.95;;
40907;SDS011;51055;59.436;24.778;2023-05-16T10:54:06;6.50;;;4.20;;
40907;SDS011;51055;59.436;24.778;2023-05-16T10:56:36;8.40;;;4.22;;
40907;SDS011;51055;59.436;24.778;2023-05-16T10:59:12;8.23;;;4.50;;
40907;SDS011;51055;59.436;24.778;2023-05-16T11:01:54;9.07;;;4.10;;
40907;SDS011;51055;59.436;24.778;2023-05-16T11:04:22;7.57;;;4.00;;
40907;SDS011;51055;59.436;24.778;2023-05-16T11:06:51;6.90;;;4.47;;
40907;SDS011;51055;59.436;24.778;2023-05-16T11:09:23;7.30;;;4.15;;
40907;SDS011;51055;59.436;24.778;2023-05-16T11:11:55;6.93;;;4.30;;
40907;SDS011;51055;59.436;24.778;2023-05-16T11:14:27;9.02;;;4.00;;
40907;SDS011;51055;59.436;24.778;2023-05-16T11:22:33;6.72;;;4.38;;
40907;SDS011;51055;59.436;24.778;2023-05-16T11:25:07;7.80;;;4.45;;
40907;SDS011;51055;59.436;24.778;2023-05-16T11:27:44;7.03;;;4.30;;
40907;SDS011;51055;59.436;24.778;2023-05-16T11:30:15;10.55;;;4.68;;
40907;SDS011;51055;59.436;24.778;2023-05-16T11:32:44;6.88;;;3.80;;
40907;SDS011;51055;59.436;24.778;2023-05-16T11:35:15;7.95;;;4.15;;
40907;SDS011;51055;59.436;24.778;2023-05-16T11:37:44;10.23;;;4.75;;
40907;SDS011;51055;59.436;24.778;2023-05-16T11:40:13;8.27;;;4.15;;
40907;SDS011;51055;59.436;24.778;2023-05-16T11:42:44;7.00;;;4.22;;
40907;SDS011;51055;59.436;24.778;2023-05-16T11:45:15;8.27;;;3.88;;
40907;SDS011;51055;59.436;24.778;2023-05-16T11:47:45;7.05;;;4.07;;
40907;SDS011;51055;59.436;24.778;2023-05-16T11:50:15;7.32;;;4.45;;
40907;SDS011;51055;59.436;24.778;2023-05-16T11:52:45;7.18;;;3.70;;
40907;SDS011;51055;59.436;24.778;2023-05-16T11:55:15;6.72;;;4.07;;
40907;SDS011;51055;59.436;24.778;2023-05-16T11:57:59;6.45;;;3.78;;
40907;SDS011;51055;59.436;24.778;2023-05-16T12:02:59;8.63;;;4.03;;
40907;SDS011;51055;59.436;24.778;2023-05-16T12:05:29;20.05;;;3.95;;
40907;SDS011;51055;59.436;24.778;2023-05-16T12:07:59;5.97;;;3.75;;
40907;SDS011;51055;59.436;24.778;2023-05-16T12:10:27;11.10;;;4.40;;
40907;SDS011;51055;59.436;24.778;2023-05-16T12:12:58;7.43;;;3.85;;
40907;SDS011;51055;59.436;24.778;2023-05-16T12:15:25;8.82;;;4.15;;
40907;SDS011;51055;59.436;24.778;2023-05-16T12:17:54;8.85;;;4.38;;
40907;SDS011;51055;59.436;24.778;2023-05-16T12:20:23;8.23;;;4.18;;
40907;SDS011;51055;59.436;24.778;2023-05-16T12:22:52;6.55;;;3.95;;
40907;SDS011;51055;59.436;24.778;2023-05-16T12:25:30;8.93;;;4.10;;
40907;SDS011;51055;59.436;24.778;2023-05-16T12:28:00;7.53;;;4.22;;
40907;SDS011;51055;59.436;24.778;2023-05-16T12:30:30;8.57;;;4.15;;
40907;SDS011;51055;59.436;24.778;2023-05-16T12:33:00;9.95;;;5.60;;
40907;SDS011;51055;59.436;24.778;2023-05-16T12:35:39;6.53;;;4.30;;
40907;SDS011;51055;59.436;24.778;2023-05-16T12:38:10;6.20;;;3.60;;
40907;SDS011;51055;59.436;24.778;2023-05-16T12:40:39;8.30;;;4.32;;
40907;SDS011;51055;59.436;24.778;2023-05-16T12:43:15;8.65;;;4.45;;
40907;SDS011;51055;59.436;24.778;2023-05-16T12:45:55;6.43;;;3.97;;
40907;SDS011;51055;59.436;24.778;2023-05-16T12:48:33;6.95;;;4.47;;
40907;SDS011;51055;59.436;24.778;2023-05-16T12:51:09;7.93;;;4.70;;
40907;SDS011;51055;59.436;24.778;2023-05-16T12:53:46;6.20;;;4.28;;
40907;SDS011;51055;59.436;24.778;2023-05-16T12:56:35;6.30;;;4.10;;
40907;SDS011;51055;59.436;24.778;2023-05-16T12:59:04;8.07;;;4.85;;
40907;SDS011;51055;59.436;24.778;2023-05-16T13:01:32;8.20;;;4.38;;
40907;SDS011;51055;59.436;24.778;2023-05-16T13:04:01;6.57;;;4.68;;
40907;SDS011;51055;59.436;24.778;2023-05-16T13:06:29;10.90;;;5.40;;
40907;SDS011;51055;59.436;24.778;2023-05-16T13:09:17;8.80;;;4.50;;
40907;SDS011;51055;59.436;24.778;2023-05-16T13:11:45;9.05;;;4.85;;
40907;SDS011;51055;59.436;24.778;2023-05-16T13:14:15;8.55;;;4.50;;
40907;SDS011;51055;59.436;24.778;2023-05-16T13:19:11;10.98;;;7.00;;
40907;SDS011;51055;59.436;24.778;2023-05-16T13:21:39;8.05;;;4.68;;
40907;SDS011;51055;59.436;24.778;2023-05-16T13:24:06;7.32;;;5.07;;
40907;SDS011;51055;59.436;24.778;2023-05-16T13:26:34;6.78;;;4.60;;
40907;SDS011;51055;59.436;24.778;2023-05-16T13:29:02;8.65;;;5.13;;
40907;SDS011;51055;59.436;24.778;2023-05-16T13:31:29;9.52;;;5.68;;
40907;SDS011;51055;59.436;24.778;2023-05-16T13:33:57;8.43;;;5.32;;
40907;SDS011;51055;59.436;24.778;2023-05-16T13:36:25;9.48;;;5.15;;
40907;SDS011;51055;59.436;24.778;2023-05-16T13:38:53;9.85;;;4.93;;
40907;SDS011;51055;59.436;24.778;2023-05-16T13:41:21;8.70;;;5.30;;
40907;SDS011;51055;59.436;24.778;2023-05-16T13:43:49;8.63;;;5.30;;
40907;SDS011;51055;59.436;24.778;2023-05-16T13:46:17;7.63;;;4.95;;
40907;SDS011;51055;59.436;24.778;2023-05-16T13:48:45;10.48;;;5.30;;
40907;SDS011;51055;59.436;24.778;2023-05-16T13:51:12;7.35;;;5.00;;
40907;SDS011;51055;59.436;24.778;2023-05-16T13:53:40;9.05;;;5.53;;
40907;SDS011;51055;59.436;24.778;2023-05-16T13:56:08;9.30;;;5.65;;
40907;SDS011;51055;59.436;24.778;2023-05-16T13:58:36;9.75;;;6.03;;
40907;SDS011;51055;59.436;24.778;2023-05-16T14:01:24;10.35;;;5.38;;
40907;SDS011;51055;59.436;24.778;2023-05-16T14:03:51;10.45;;;5.53;;
40907;SDS011;51055;59.436;24.778;2023-05-16T14:06:19;9.63;;;5.85;;
40907;SDS011;51055;59.436;24.778;2023-05-16T14:08:47;9.37;;;5.93;;
40907;SDS011;51055;59.436;24.778;2023-05-16T14:11:15;8.48;;;5.38;;
40907;SDS011;51055;59.436;24.778;2023-05-16T14:13:45;8.05;;;5.32;;
40907;SDS011;51055;59.436;24.778;2023-05-16T14:16:13;8.55;;;5.75;;
40907;SDS011;51055;59.436;24.778;2023-05-16T14:18:41;9.35;;;5.78;;
40907;SDS011;51055;59.436;24.778;2023-05-16T14:21:09;9.73;;;6.15;;
40907;SDS011;51055;59.436;24.778;2023-05-16T14:23:37;8.55;;;5.95;;
40907;SDS011;51055;59.436;24.778;2023-05-16T14:26:06;11.43;;;6.13;;
40907;SDS011;51055;59.436;24.778;2023-05-16T14:28:33;9.27;;;6.20;;
40907;SDS011;51055;59.436;24.778;2023-05-16T14:31:01;9.57;;;5.85;;
40907;SDS011;51055;59.436;24.778;2023-05-16T14:33:29;11.38;;;6.32;;
40907;SDS011;51055;59.436;24.778;2023-05-16T14:35:59;11.32;;;6.50;;
40907;SDS011;51055;59.436;24.778;2023-05-16T14:38:26;9.27;;;6.57;;
40907;SDS011;51055;59.436;24.778;2023-05-16T14:40:54;10.45;;;5.93;;
40907;SDS011;51055;59.436;24.778;2023-05-16T14:43:22;10.07;;;6.60;;
40907;SDS011;51055;59.436;24.778;2023-05-16T14:45:50;9.25;;;6.55;;
40907;SDS011;51055;59.436;24.778;2023-05-16T14:48:18;9.65;;;6.05;;
40907;SDS011;51055;59.436;24.778;2023-05-16T14:50:46;10.52;;;6.28;;
40907;SDS011;51055;59.436;24.778;2023-05-16T14:53:14;8.30;;;6.32;;
40907;SDS011;51055;59.436;24.778;2023-05-16T14:55:42;10.23;;;6.25;;
40907;SDS011;51055;59.436;24.778;2023-05-16T14:58:10;10.13;;;6.70;;
40907;SDS011;51055;59.436;24.778;2023-05-16T15:00:38;9.25;;;5.88;;
40907;SDS011;51055;59.436;24.778;2023-05-16T15:03:05;9.63;;;6.43;;
40907;SDS011;51055;59.436;24.778;2023-05-16T15:05:33;9.00;;;5.45;;
40907;SDS011;51055;59.436;24.778;2023-05-16T15:08:01;9.07;;;5.67;;
40907;SDS011;51055;59.436;24.778;2023-05-16T15:10:29;8.27;;;5.40;;
40907;SDS011;51055;59.436;24.778;2023-05-16T15:12:57;10.03;;;5.43;;
40907;SDS011;51055;59.436;24.778;2023-05-16T15:15:25;7.95;;;5.22;;
40907;SDS011;51055;59.436;24.778;2023-05-16T15:17:52;8.60;;;5.43;;
40907;SDS011;51055;59.436;24.778;2023-05-16T15:20:21;9.65;;;5.80;;
40907;SDS011;51055;59.436;24.778;2023-05-16T15:22:49;8.02;;;5.65;;
40907;SDS011;51055;59.436;24.778;2023-05-16T15:25:17;8.43;;;5.72;;